Time;durP1;ratioP1;P1;durP2;ratioP2;P2;SDS_P1;SDS_P2;PMS_P1;PMS_P2;Temp;Humidity;BMP_temperature;BMP_pressure;BME280_temperature;BME280_humidity;BME280_pressure;Samples;Min_cycle;Max_cycle;Signal;HPM_P1;HPM_P2
2021/08/07 00:01:52;;;;;;;1.40;0.70;;;;;;;17.32;100.00;100051.19;5095483;28;20436;-71
2021/08/07 00:04:20;;;;;;;1.70;1.10;;;;;;;17.30;100.00;100042.53;5095327;28;20468;-70
2021/08/07 00:06:47;;;;;;;1.10;0.93;;;;;;;17.28;100.00;100045.66;5095348;28;20447;-70
2021/08/07 00:09:13;;;;;;;3.73;1.37;;;;;;;17.25;100.00;100040.88;5095223;28;20484;-71
2021/08/07 00:11:40;;;;;;;0.80;0.80;;;;;;;17.26;100.00;100047.94;5095255;28;20448;-71
2021/08/07 00:14:06;;;;;;;1.47;1.00;;;;;;;17.23;100.00;100048.66;5094858;28;20460;-70
2021/08/07 00:16:32;;;;;;;1.73;1.10;;;;;;;17.19;100.00;100042.31;5095148;28;20440;-70
2021/08/07 00:18:59;;;;;;;2.13;1.40;;;;;;;17.17;100.00;100050.09;5095106;28;20459;-70
2021/08/07 00:21:27;;;;;;;0.90;0.70;;;;;;;17.15;100.00;100049.66;5095095;28;20614;-70
2021/08/07 00:23:53;;;;;;;0.77;0.60;;;;;;;17.09;100.00;100048.38;5094732;28;20461;-71
2021/08/07 00:26:20;;;;;;;0.80;0.70;;;;;;;17.00;100.00;100050.50;5094899;28;20444;-69
2021/08/07 00:28:46;;;;;;;2.13;1.23;;;;;;;16.94;100.00;100055.44;5094843;28;20444;-70
2021/08/07 00:31:13;;;;;;;1.40;1.00;;;;;;;16.95;100.00;100048.03;5094884;28;20444;-70
2021/08/07 00:33:39;;;;;;;0.80;0.60;;;;;;;16.93;100.00;100047.63;5094501;28;20880;-71
2021/08/07 00:36:06;;;;;;;1.00;0.90;;;;;;;16.90;100.00;100040.91;5094765;28;20437;-71
2021/08/07 00:38:34;;;;;;;0.97;0.83;;;;;;;16.86;100.00;100049.03;5094750;28;20467;-71
2021/08/07 00:41:00;;;;;;;1.37;1.10;;;;;;;16.86;100.00;100045.50;5094418;28;20501;-71
2021/08/07 00:43:27;;;;;;;1.57;1.33;;;;;;;16.81;100.00;100052.03;5094547;28;20440;-71
2021/08/07 00:45:53;;;;;;;1.27;0.87;;;;;;;16.78;100.00;100041.81;5094620;28;20444;-71
2021/08/07 00:48:20;;;;;;;1.20;1.07;;;;;;;16.77;100.00;100048.44;5094541;28;20444;-71
2021/08/07 00:50:47;;;;;;;0.87;0.73;;;;;;;16.76;100.00;100046.84;5094456;28;20476;-71
2021/08/07 00:53:14;;;;;;;1.47;0.80;;;;;;;16.65;100.00;100048.53;5094544;28;20447;-71
2021/08/07 00:55:42;;;;;;;1.77;1.00;;;;;;;16.66;100.00;100047.38;5094372;28;20447;-71
2021/08/07 00:58:08;;;;;;;1.57;1.10;;;;;;;16.67;100.00;100054.41;5094320;28;20479;-71
2021/08/07 01:00:35;;;;;;;2.80;1.07;;;;;;;16.65;100.00;100052.06;5094215;28;20437;-71
2021/08/07 01:03:07;;;;;;;1.03;0.93;;;;;;;16.66;100.00;100058.31;5094271;28;20440;-71
2021/08/07 01:05:40;;;;;;;1.27;0.90;;;;;;;16.61;100.00;100062.09;5094235;28;20495;-70
2021/08/07 01:08:15;;;;;;;0.60;0.57;;;;;;;16.61;100.00;100055.84;5094207;28;20436;-71
2021/08/07 01:10:49;;;;;;;0.70;0.63;;;;;;;16.58;100.00;100051.88;5094111;28;20488;-70
2021/08/07 01:13:20;;;;;;;1.20;0.80;;;;;;;16.52;100.00;100056.03;5094010;28;20424;-70
2021/08/07 01:15:51;;;;;;;1.70;1.17;;;;;;;16.45;100.00;100049.59;5094184;28;20810;-72
2021/08/07 01:18:21;;;;;;;1.37;1.13;;;;;;;16.43;100.00;100047.22;5093856;28;20429;-72
2021/08/07 01:20:50;;;;;;;1.37;0.77;;;;;;;16.45;100.00;100053.13;5101203;28;20444;-73
2021/08/07 01:23:31;;;;;;;1.83;1.70;;;;;;;16.45;100.00;100052.31;5093916;28;20445;-73
2021/08/07 01:26:02;;;;;;;1.10;0.80;;;;;;;16.37;100.00;100046.66;5093460;28;20893;-72
2021/08/07 01:28:33;;;;;;;1.43;1.17;;;;;;;16.36;100.00;100045.09;5093871;28;20781;-72
2021/08/07 01:31:00;;;;;;;1.00;0.90;;;;;;;16.26;100.00;100050.31;5093661;28;20472;-73
2021/08/07 01:33:28;;;;;;;1.23;1.03;;;;;;;16.24;100.00;100047.91;5093741;28;20440;-73
2021/08/07 01:35:55;;;;;;;1.77;1.17;;;;;;;16.20;100.00;100047.03;5093384;28;20462;-73
2021/08/07 01:38:22;;;;;;;2.03;0.90;;;;;;;16.15;100.00;100053.53;5093283;28;20452;-73
2021/08/07 01:40:49;;;;;;;4.10;0.80;;;;;;;16.17;100.00;100044.22;5093574;28;20444;-73
2021/08/07 01:43:16;;;;;;;1.80;1.10;;;;;;;16.18;100.00;100041.13;5093488;28;20443;-73
2021/08/07 01:45:45;;;;;;;0.93;0.83;;;;;;;16.24;100.00;100042.44;5093567;28;20432;-72
2021/08/07 01:48:16;;;;;;;2.47;1.30;;;;;;;16.15;100.00;100039.88;5093465;28;20455;-73
2021/08/07 01:50:46;;;;;;;1.40;1.00;;;;;;;16.18;100.00;100037.59;5093183;28;21042;-72
2021/08/07 01:53:19;;;;;;;1.83;0.97;;;;;;;16.17;100.00;100030.56;5093664;28;20444;-72
2021/08/07 01:55:50;;;;;;;0.83;0.53;;;;;;;16.19;100.00;100031.78;5093453;28;20428;-72
2021/08/07 01:58:24;;;;;;;0.80;0.80;;;;;;;16.19;100.00;100044.66;5093202;28;20806;-73
2021/08/07 02:00:52;;;;;;;0.70;0.63;;;;;;;16.21;100.00;100039.63;5093472;28;20416;-73
2021/08/07 02:03:19;;;;;;;1.27;0.90;;;;;;;16.20;100.00;100044.28;5093234;28;20447;-73
2021/08/07 02:05:48;;;;;;;2.30;1.17;;;;;;;16.20;100.00;100041.56;5093576;28;20449;-73
2021/08/07 02:08:15;;;;;;;1.17;1.07;;;;;;;16.20;100.00;100046.22;5093338;28;20859;-71
2021/08/07 02:10:45;;;;;;;1.67;1.10;;;;;;;16.20;100.00;100040.75;5093221;28;20488;-71
2021/08/07 02:13:13;;;;;;;1.27;0.90;;;;;;;16.16;100.00;100040.69;5093126;28;20447;-71
2021/08/07 02:15:42;;;;;;;0.80;0.60;;;;;;;16.15;100.00;100039.09;5093268;28;20440;-71
2021/08/07 02:18:12;;;;;;;6.10;1.17;;;;;;;16.15;100.00;100037.16;5092881;28;20433;-71
2021/08/07 02:20:39;;;;;;;1.43;0.80;;;;;;;16.17;100.00;100025.09;5093239;28;20427;-71
2021/08/07 02:23:06;;;;;;;1.63;0.90;;;;;;;16.17;100.00;100016.91;5093195;28;20432;-71
2021/08/07 02:25:32;;;;;;;1.37;1.00;;;;;;;16.13;100.00;100022.25;5092698;28;20471;-71
2021/08/07 02:28:00;;;;;;;1.23;0.90;;;;;;;16.08;100.00;100022.53;5092818;28;20866;-71
2021/08/07 02:30:27;;;;;;;1.73;1.00;;;;;;;16.06;100.00;100030.28;5092996;28;20484;-71
2021/08/07 02:32:54;;;;;;;0.90;0.80;;;;;;;15.97;100.00;100027.69;5093120;28;20447;-70
2021/08/07 02:35:23;;;;;;;1.40;1.30;;;;;;;15.91;100.00;100034.59;5092651;28;21029;-71
2021/08/07 02:37:51;;;;;;;1.40;1.13;;;;;;;15.88;100.00;100036.06;5094774;28;20448;-71
2021/08/07 02:40:18;;;;;;;1.50;1.07;;;;;;;15.90;100.00;100035.72;5097002;28;20440;-71
2021/08/07 02:42:45;;;;;;;1.43;1.33;;;;;;;15.96;100.00;100039.78;5097035;28;20455;-71
2021/08/07 02:45:12;;;;;;;1.43;0.97;;;;;;;16.00;100.00;100037.94;5096859;28;20463;-71
2021/08/07 02:47:39;;;;;;;1.77;1.40;;;;;;;16.00;100.00;100032.47;5096952;28;20436;-71
2021/08/07 02:50:08;;;;;;;1.07;0.97;;;;;;;15.99;100.00;100033.63;5096786;28;20480;-71
2021/08/07 02:52:36;;;;;;;1.10;0.80;;;;;;;16.02;100.00;100040.31;5096495;28;20809;-71
2021/08/07 02:55:04;;;;;;;1.97;1.73;;;;;;;16.02;100.00;100043.84;5096667;28;20463;-71
2021/08/07 02:57:31;;;;;;;1.50;1.40;;;;;;;15.99;100.00;100030.91;5096766;28;20449;-71
2021/08/07 02:59:58;;;;;;;1.03;0.93;;;;;;;15.98;100.00;100039.41;5096637;28;20444;-71
2021/08/07 03:02:25;;;;;;;1.43;0.97;;;;;;;15.99;100.00;100043.75;5096623;28;20443;-71
2021/08/07 03:04:51;;;;;;;3.03;1.13;;;;;;;15.99;100.00;100041.03;5096501;28;20456;-71
2021/08/07 03:07:19;;;;;;;1.57;1.10;;;;;;;16.01;100.00;100036.00;5096507;28;20436;-71
2021/08/07 03:09:47;;;;;;;2.33;1.53;;;;;;;16.02;100.00;100032.13;5096308;28;20484;-71
2021/08/07 03:12:15;;;;;;;1.23;1.00;;;;;;;15.99;100.00;100035.56;5096426;28;20837;-71
2021/08/07 03:14:43;;;;;;;1.23;1.13;;;;;;;16.00;100.00;100032.47;5096329;28;20459;-71
2021/08/07 03:17:09;;;;;;;1.47;0.90;;;;;;;16.01;100.00;100030.53;5096330;28;20469;-71
2021/08/07 03:19:36;;;;;;;1.80;1.00;;;;;;;16.01;100.00;100033.25;5096305;28;20452;-71
2021/08/07 03:22:02;;;;;;;3.90;1.20;;;;;;;15.99;100.00;100038.31;5095906;28;20845;-71
2021/08/07 03:24:29;;;;;;;2.27;1.70;;;;;;;15.98;100.00;100036.69;5095896;28;20487;-70
2021/08/07 03:26:56;;;;;;;4.00;1.10;;;;;;;15.91;100.00;100039.25;5096104;28;20945;-71
2021/08/07 03:29:23;;;;;;;0.90;0.80;;;;;;;15.92;100.00;100036.16;5096129;28;20447;-71
2021/08/07 03:31:49;;;;;;;1.40;1.03;;;;;;;15.94;100.00;100035.81;5095665;28;20884;-71
2021/08/07 03:34:16;;;;;;;1.57;1.13;;;;;;;15.92;100.00;100029.91;5095606;28;20898;-71
2021/08/07 03:36:43;;;;;;;1.60;1.20;;;;;;;15.94;100.00;100038.53;5095967;28;20452;-71
2021/08/07 03:39:09;;;;;;;2.00;1.33;;;;;;;15.93;100.00;100037.75;5095933;28;20436;-71
2021/08/07 03:41:35;;;;;;;1.73;1.60;;;;;;;15.82;100.00;100032.00;5095902;28;20440;-70
2021/08/07 03:44:04;;;;;;;2.20;1.27;;;;;;;15.75;100.00;100031.81;5095748;28;20469;-70
2021/08/07 03:46:30;;;;;;;2.47;1.33;;;;;;;15.69;100.00;100026.97;5095746;28;20448;-70
2021/08/07 03:48:57;;;;;;;1.00;0.80;;;;;;;15.53;100.00;100027.66;5094756;28;20864;-71
2021/08/07 03:51:23;;;;;;;1.77;1.33;;;;;;;15.55;100.00;100038.25;5095568;28;20476;-71
2021/08/07 03:53:49;;;;;;;0.73;0.73;;;;;;;15.62;100.00;100027.53;5095572;28;20468;-71
2021/08/07 03:56:16;;;;;;;1.67;0.90;;;;;;;15.64;100.00;100030.75;5095567;28;20490;-71
2021/08/07 03:58:42;;;;;;;1.17;1.07;;;;;;;15.66;100.00;100039.38;5095555;28;20440;-71
2021/08/07 04:01:10;;;;;;;1.53;1.00;;;;;;;15.67;100.00;100040.97;5095324;28;20934;-70
2021/08/07 04:03:36;;;;;;;1.90;1.57;;;;;;;15.68;100.00;100031.63;5095378;28;20463;-70
2021/08/07 04:06:03;;;;;;;2.23;1.10;;;;;;;15.69;100.00;100033.22;5095389;28;20444;-70
2021/08/07 04:08:29;;;;;;;2.53;1.93;;;;;;;15.71;100.00;100038.31;5095548;28;20433;-71
2021/08/07 04:10:56;;;;;;;2.23;1.43;;;;;;;15.74;100.00;100043.88;5095226;28;20487;-71
2021/08/07 04:13:22;;;;;;;1.20;1.10;;;;;;;15.76;100.00;100043.53;5094897;28;20994;-71
2021/08/07 04:15:48;;;;;;;1.43;1.33;;;;;;;15.81;100.00;100046.03;5095251;28;20449;-70
2021/08/07 04:18:16;;;;;;;1.20;1.10;;;;;;;15.85;100.00;100047.72;5095143;28;20436;-71
2021/08/07 04:20:43;;;;;;;2.43;1.77;;;;;;;15.89;100.00;100042.31;5095127;28;20444;-71
2021/08/07 04:23:09;;;;;;;1.63;1.07;;;;;;;15.91;100.00;100047.44;5094989;28;20444;-71
2021/08/07 04:25:36;;;;;;;0.90;0.80;;;;;;;15.96;100.00;100041.72;5095019;28;20510;-71
2021/08/07 04:28:03;;;;;;;1.30;1.20;;;;;;;15.98;100.00;100042.16;5094998;28;20432;-71
2021/08/07 04:30:29;;;;;;;1.67;1.33;;;;;;;16.02;100.00;100035.63;5094847;28;20487;-71
2021/08/07 04:32:56;;;;;;;1.97;1.60;;;;;;;16.05;100.00;100029.47;5096200;28;20437;-71
2021/08/07 04:35:24;;;;;;;1.47;1.23;;;;;;;16.11;100.00;100033.56;5094454;28;21054;-71
2021/08/07 04:37:52;;;;;;;2.70;1.00;;;;;;;16.12;100.00;100039.81;5094459;28;20944;-70
2021/08/07 04:40:20;;;;;;;1.23;1.07;;;;;;;16.04;100.00;100040.75;5094278;28;20467;-71
2021/08/07 04:42:48;;;;;;;2.93;1.53;;;;;;;16.05;100.00;100045.88;5094704;28;20452;-71
2021/08/07 04:45:15;;;;;;;1.70;1.10;;;;;;;16.06;100.00;100044.72;5094609;28;20464;-71
2021/08/07 04:47:55;;;;;;;1.60;1.07;;;;;;;16.11;100.00;100060.88;5094301;28;20819;-70
2021/08/07 04:50:24;;;;;;;2.23;1.40;;;;;;;16.17;100.00;100057.88;5094537;28;20472;-70
2021/08/07 04:52:51;;;;;;;3.30;1.63;;;;;;;16.23;100.00;100056.47;5094499;28;20436;-71
2021/08/07 04:55:17;;;;;;;4.00;2.00;;;;;;;16.30;100.00;100060.19;5094399;28;20460;-76
2021/08/07 04:57:44;;;;;;;1.30;1.20;;;;;;;16.37;100.00;100052.13;5094439;28;20436;-71
2021/08/07 05:00:11;;;;;;;1.53;1.17;;;;;;;16.44;100.00;100048.00;5093743;28;20441;-71
2021/08/07 05:02:38;;;;;;;2.73;1.50;;;;;;;16.51;100.00;100051.72;5093757;28;20444;-72
2021/08/07 05:05:06;;;;;;;2.10;0.90;;;;;;;16.56;100.00;100051.44;5094128;28;20464;-73
2021/08/07 05:07:34;;;;;;;2.10;1.53;;;;;;;16.60;100.00;100048.78;5094001;28;20949;-72
2021/08/07 05:10:01;;;;;;;2.10;1.30;;;;;;;16.64;100.00;100049.66;5094157;28;20444;-73
2021/08/07 05:12:28;;;;;;;1.87;1.50;;;;;;;16.68;100.00;100056.00;5094100;28;20480;-73
2021/08/07 05:14:55;;;;;;;1.90;1.30;;;;;;;16.71;100.00;100044.34;5093777;28;20983;-72
2021/08/07 05:17:24;;;;;;;1.70;1.13;;;;;;;16.79;100.00;100042.63;5094153;28;20472;-72
2021/08/07 05:19:51;;;;;;;1.60;1.47;;;;;;;16.81;100.00;100049.31;5094083;28;20811;-72
2021/08/07 05:22:18;;;;;;;1.17;1.07;;;;;;;16.87;100.00;100047.91;5094018;28;20443;-72
2021/08/07 05:24:46;;;;;;;1.63;1.30;;;;;;;16.92;100.00;100055.03;5093665;28;20480;-72
2021/08/07 05:27:13;;;;;;;2.03;1.77;;;;;;;16.97;100.00;100052.00;5093789;28;20441;-70
2021/08/07 05:29:40;;;;;;;1.23;1.13;;;;;;;17.01;100.00;100052.09;5093789;28;20436;-71
2021/08/07 05:32:06;;;;;;;2.13;1.50;;;;;;;17.03;100.00;100056.03;5093742;28;20549;-71
2021/08/07 05:34:33;;;;;;;2.47;1.73;;;;;;;17.02;100.00;100053.69;5093672;28;20460;-71
2021/08/07 05:36:59;;;;;;;1.40;1.30;;;;;;;17.06;100.00;100068.22;5093706;28;20490;-71
2021/08/07 05:39:26;;;;;;;1.87;1.03;;;;;;;17.06;100.00;100066.28;5093637;28;20556;-71
2021/08/07 05:41:54;;;;;;;2.13;1.70;;;;;;;17.14;100.00;100067.25;5093612;28;20448;-71
2021/08/07 05:44:20;;;;;;;2.73;1.83;;;;;;;17.19;100.00;100071.66;5093472;28;20456;-71
2021/08/07 05:46:47;;;;;;;2.80;2.00;;;;;;;17.22;100.00;100069.00;5093482;28;20441;-71
2021/08/07 05:49:13;;;;;;;1.60;1.23;;;;;;;17.30;100.00;100067.16;5093409;28;20436;-72
2021/08/07 05:51:40;;;;;;;1.90;1.47;;;;;;;17.38;100.00;100074.38;5093100;28;21022;-70
2021/08/07 05:54:06;;;;;;;2.80;1.63;;;;;;;17.42;100.00;100071.72;5093536;28;20522;-71
2021/08/07 05:56:33;;;;;;;3.10;1.50;;;;;;;17.50;100.00;100079.72;5093459;28;20447;-71
2021/08/07 05:59:01;;;;;;;2.47;1.23;;;;;;;17.55;100.00;100073.19;5093392;28;20444;-71
2021/08/07 06:01:29;;;;;;;3.13;1.80;;;;;;;17.57;100.00;100079.84;5093069;28;20845;-70
2021/08/07 06:03:56;;;;;;;2.63;1.10;;;;;;;17.62;100.00;100081.56;5092987;28;20460;-71
2021/08/07 06:06:22;;;;;;;1.33;1.17;;;;;;;17.68;100.00;100082.03;5093342;28;20440;-71
2021/08/07 06:08:49;;;;;;;1.70;1.47;;;;;;;17.71;100.00;100073.91;5093346;28;20444;-70
2021/08/07 06:11:15;;;;;;;2.80;1.33;;;;;;;17.78;100.00;100085.00;5093202;28;20480;-71
2021/08/07 06:13:42;;;;;;;2.57;1.20;;;;;;;17.82;100.00;100085.09;5099385;28;20460;-70
2021/08/07 06:16:09;;;;;;;1.57;1.00;;;;;;;17.88;100.00;100094.59;5100028;28;20455;-70
2021/08/07 06:18:36;;;;;;;2.17;1.50;;;;;;;17.94;100.00;100097.84;5100244;28;20453;-70
2021/08/07 06:21:02;;;;;;;2.37;1.50;;;;;;;17.98;100.00;100096.75;5099672;28;21038;-71
2021/08/07 06:23:29;;;;;;;1.47;1.10;;;;;;;17.98;100.00;100099.50;5099432;28;20464;-70
2021/08/07 06:25:55;;;;;;;2.07;1.57;;;;;;;18.07;100.00;100105.53;5099980;28;20424;-70
2021/08/07 06:28:22;;;;;;;2.60;1.40;;;;;;;18.08;100.00;100104.38;5099871;28;20443;-70
2021/08/07 06:30:49;;;;;;;1.17;1.03;;;;;;;18.15;100.00;100093.56;5099473;28;20940;-70
2021/08/07 06:33:17;;;;;;;1.80;1.03;;;;;;;18.16;100.00;100105.31;5099752;28;20448;-70
2021/08/07 06:35:43;;;;;;;5.90;2.03;;;;;;;18.20;100.00;100103.44;5099851;28;20443;-70
2021/08/07 06:38:09;;;;;;;1.27;1.17;;;;;;;18.23;100.00;100102.69;5099765;28;20444;-71
2021/08/07 06:40:37;;;;;;;4.43;1.73;;;;;;;18.30;100.00;100096.53;5099840;28;20451;-70
2021/08/07 06:43:04;;;;;;;1.43;1.30;;;;;;;18.37;100.00;100091.97;5099832;28;20518;-70
2021/08/07 06:45:30;;;;;;;2.50;1.50;;;;;;;18.41;100.00;100097.50;5099615;28;20475;-71
2021/08/07 06:47:57;;;;;;;2.30;1.50;;;;;;;18.47;100.00;100103.50;5099745;28;20440;-70
2021/08/07 06:50:25;;;;;;;0.80;0.70;;;;;;;18.52;100.00;100108.69;5099622;28;20459;-70
2021/08/07 06:52:51;;;;;;;2.60;1.63;;;;;;;18.58;100.00;100113.47;5099403;28;20480;-70
2021/08/07 06:55:17;;;;;;;2.47;1.50;;;;;;;18.63;100.00;100113.16;5099565;28;20457;-70
2021/08/07 06:57:44;;;;;;;1.30;0.97;;;;;;;18.67;100.00;100114.00;5100036;28;20839;-71
2021/08/07 07:00:12;;;;;;;1.60;1.37;;;;;;;18.72;100.00;100118.44;5099622;28;20528;-71
2021/08/07 07:02:39;;;;;;;2.53;1.10;;;;;;;18.79;100.00;100106.78;5099293;28;21017;-71
2021/08/07 07:05:06;;;;;;;3.40;1.87;;;;;;;18.82;100.00;100111.53;5099430;28;20829;-71
2021/08/07 07:07:34;;;;;;;2.67;1.27;;;;;;;18.83;100.00;100113.91;5099519;28;20794;-71
2021/08/07 07:10:00;;;;;;;1.87;1.13;;;;;;;18.89;100.00;100109.69;5099520;28;20497;-71
2021/08/07 07:12:27;;;;;;;1.93;1.40;;;;;;;18.96;100.00;100120.00;5099199;28;20486;-71
2021/08/07 07:14:53;;;;;;;1.30;1.20;;;;;;;19.01;100.00;100119.69;5099395;28;20531;-71
2021/08/07 07:17:20;;;;;;;1.40;1.20;;;;;;;19.06;100.00;100116.59;5099429;28;20490;-71
2021/08/07 07:19:46;;;;;;;5.10;1.80;;;;;;;19.14;100.00;100123.78;5099428;28;20459;-71
2021/08/07 07:22:13;;;;;;;1.23;1.10;;;;;;;19.15;99.94;100117.13;5099370;28;20440;-72
2021/08/07 07:24:40;;;;;;;1.83;1.40;;;;;;;19.18;99.69;100117.56;5095851;28;20479;-73
2021/08/07 07:27:07;;;;;;;1.53;1.33;;;;;;;19.21;98.46;100122.31;5096380;28;20444;-72
2021/08/07 07:29:34;;;;;;;1.47;1.00;;;;;;;19.30;96.76;100114.56;5096166;28;20480;-72
2021/08/07 07:32:00;;;;;;;1.67;0.80;;;;;;;19.40;97.79;100122.97;5095785;28;21008;-74
2021/08/07 07:34:27;;;;;;;1.53;0.97;;;;;;;19.49;96.69;100128.19;5095990;28;20550;-75
2021/08/07 07:36:53;;;;;;;1.47;1.00;;;;;;;19.56;95.06;100136.50;5096061;28;20448;-77
2021/08/07 07:39:20;;;;;;;1.10;0.90;;;;;;;19.57;95.53;100131.84;5095862;28;20436;-74
2021/08/07 07:41:47;;;;;;;1.03;0.97;;;;;;;19.65;94.05;100144.50;5095589;28;20436;-74
2021/08/07 07:44:14;;;;;;;1.57;1.43;;;;;;;19.70;95.74;100146.94;5095493;28;20460;-73
2021/08/07 07:46:40;;;;;;;1.40;0.73;;;;;;;19.73;94.83;100139.91;5095562;28;20953;-76
2021/08/07 07:49:07;;;;;;;0.83;0.80;;;;;;;19.77;95.62;100135.25;5095455;28;20991;-78
2021/08/07 07:51:33;;;;;;;1.33;1.10;;;;;;;19.85;94.44;100137.72;5095673;28;20554;-72
2021/08/07 07:54:00;;;;;;;2.13;1.13;;;;;;;19.89;95.03;100135.00;5095634;28;20461;-74
2021/08/07 07:56:27;;;;;;;0.93;0.90;;;;;;;19.89;93.31;100129.50;5095274;28;20904;-74
2021/08/07 07:58:54;;;;;;;1.53;1.20;;;;;;;19.91;93.33;100121.66;5095618;28;20472;-74
2021/08/07 08:01:21;;;;;;;1.03;0.93;;;;;;;19.96;93.46;100120.53;5095521;28;20778;-74
2021/08/07 08:03:47;;;;;;;1.20;1.10;;;;;;;20.11;93.64;100123.06;5095434;28;20472;-74
2021/08/07 08:06:14;;;;;;;1.83;1.20;;;;;;;20.24;92.42;100126.34;5095405;28;20809;-74
2021/08/07 08:08:40;;;;;;;2.27;1.77;;;;;;;20.27;93.12;100128.31;5095421;28;20444;-74
2021/08/07 08:11:07;;;;;;;1.37;1.20;;;;;;;20.36;92.75;100117.81;5095269;28;20470;-74
2021/08/07 08:13:39;;;;;;;2.30;1.37;;;;;;;20.39;93.32;100119.81;5095219;28;20455;-73
2021/08/07 08:16:07;;;;;;;1.57;1.10;;;;;;;20.49;92.39;100121.09;5095020;28;20419;-74
2021/08/07 08:18:34;;;;;;;0.73;0.73;;;;;;;20.57;91.17;100121.97;5095198;28;20511;-74
2021/08/07 08:21:02;;;;;;;1.30;1.00;;;;;;;20.57;87.99;100124.72;5095385;28;20444;-74
2021/08/07 08:23:29;;;;;;;1.30;1.03;;;;;;;20.58;88.93;100123.53;5094743;28;20663;-74
2021/08/07 08:25:56;;;;;;;1.23;1.10;;;;;;;20.64;89.37;100119.28;5094796;28;20898;-74
2021/08/07 08:28:22;;;;;;;0.87;0.80;;;;;;;20.66;88.82;100120.47;5094914;28;20466;-74
2021/08/07 08:30:49;;;;;;;1.73;1.30;;;;;;;20.78;88.19;100126.84;5094633;28;20949;-74
2021/08/07 08:33:17;;;;;;;0.97;0.90;;;;;;;20.84;85.55;100122.56;5094497;28;20521;-74
2021/08/07 08:35:46;;;;;;;1.60;1.20;;;;;;;20.95;86.94;100130.91;5094556;28;20440;-75
2021/08/07 08:38:13;;;;;;;1.20;1.10;;;;;;;21.00;86.41;100134.09;5094667;28;20486;-74
2021/08/07 08:40:40;;;;;;;1.77;1.20;;;;;;;21.07;86.93;100134.16;5094682;28;20558;-74
2021/08/07 08:43:06;;;;;;;1.53;1.00;;;;;;;21.12;84.84;100128.28;5094881;28;20437;-74
2021/08/07 08:45:33;;;;;;;0.90;0.80;;;;;;;21.23;83.79;100128.34;5094577;28;20825;-74
2021/08/07 08:48:01;;;;;;;1.97;1.30;;;;;;;21.41;82.95;100131.22;5094249;28;20941;-74
2021/08/07 08:50:29;;;;;;;0.80;0.70;;;;;;;21.51;84.69;100122.22;5094539;28;20436;-76
2021/08/07 08:53:00;;;;;;;1.30;0.97;;;;;;;21.56;82.39;100132.91;5094418;28;20507;-76
2021/08/07 08:55:26;;;;;;;1.20;0.93;;;;;;;21.66;81.71;100120.34;5094396;28;20467;-76
2021/08/07 08:57:53;;;;;;;1.00;0.90;;;;;;;21.73;82.13;100130.59;5094408;28;20439;-76
2021/08/07 09:00:20;;;;;;;1.10;0.90;;;;;;;21.80;81.40;100131.41;5094371;28;20449;-77
2021/08/07 09:02:46;;;;;;;1.93;0.80;;;;;;;21.76;81.12;100130.59;5094322;28;20437;-76
2021/08/07 09:05:14;;;;;;;2.00;1.00;;;;;;;21.84;82.16;100123.94;5094175;28;20464;-76
2021/08/07 09:07:43;;;;;;;1.47;1.23;;;;;;;21.96;82.29;100128.31;5094181;28;20554;-76
2021/08/07 09:10:10;;;;;;;1.60;1.10;;;;;;;22.02;79.33;100125.97;5094389;28;20455;-76
2021/08/07 09:12:48;;;;;;;1.00;0.90;;;;;;;22.02;79.10;100131.47;5094039;28;20517;-77
2021/08/07 09:15:27;;;;;;;0.80;0.80;;;;;;;21.98;79.37;100127.94;5094112;28;20471;-76
2021/08/07 09:18:12;;;;;;;1.13;1.03;;;;;;;22.03;79.27;100127.53;5094095;28;20448;-76
2021/08/07 09:20:40;;;;;;;1.70;1.57;;;;;;;22.05;79.24;100142.53;5094080;28;20432;-76
2021/08/07 09:23:07;;;;;;;1.00;0.80;;;;;;;22.13;81.37;100132.31;5093893;28;20444;-76
2021/08/07 09:25:35;;;;;;;1.53;1.00;;;;;;;22.28;79.12;100141.44;5093787;28;20460;-76
2021/08/07 09:28:01;;;;;;;1.03;0.90;;;;;;;22.46;78.13;100141.47;5094037;28;20518;-76
2021/08/07 09:30:34;;;;;;;1.03;0.93;;;;;;;22.63;77.53;100129.66;5093649;28;20445;-76
2021/08/07 09:33:02;;;;;;;0.93;0.87;;;;;;;22.78;78.19;100133.97;5093632;28;20491;-76
2021/08/07 09:35:30;;;;;;;2.40;1.43;;;;;;;22.83;74.98;100133.56;5093304;28;20846;-76
2021/08/07 09:38:18;;;;;;;1.33;1.20;;;;;;;22.75;75.56;100133.97;5093677;28;20455;-76
2021/08/07 09:40:51;;;;;;;1.07;0.97;;;;;;;22.72;73.18;100134.78;5093693;28;20433;-76
2021/08/07 09:43:19;;;;;;;0.90;0.83;;;;;;;22.78;74.05;100122.91;5094321;28;20451;-76
2021/08/07 09:45:57;;;;;;;1.23;0.97;;;;;;;22.85;76.43;100117.41;5093614;28;20436;-75
2021/08/07 09:48:31;;;;;;;1.67;1.10;;;;;;;22.86;74.27;100109.91;5093000;28;20432;-76
2021/08/07 09:50:57;;;;;;;1.80;1.03;;;;;;;22.85;74.36;100106.34;5093355;28;20440;-76
2021/08/07 09:53:28;;;;;;;1.27;0.87;;;;;;;22.86;71.36;100102.41;5092785;28;20495;-75
2021/08/07 09:56:02;;;;;;;1.17;1.07;;;;;;;22.91;72.88;100092.97;5093246;28;20509;-76
2021/08/07 09:58:29;;;;;;;1.03;0.80;;;;;;;22.94;71.65;100102.44;5093440;28;20447;-76
2021/08/07 10:00:55;;;;;;;1.63;0.90;;;;;;;23.10;73.65;100100.03;5093427;28;20436;-76
2021/08/07 10:03:23;;;;;;;1.27;0.80;;;;;;;23.23;73.05;100094.84;5093190;28;20441;-76
2021/08/07 10:05:51;;;;;;;0.80;0.60;;;;;;;23.27;72.10;100096.44;5093159;28;20932;-76
2021/08/07 10:08:18;;;;;;;5.60;0.90;;;;;;;23.30;69.35;100098.41;5093635;28;20451;-77
2021/08/07 10:10:49;;;;;;;1.23;0.93;;;;;;;23.44;69.67;100089.25;5092948;28;20463;-74
2021/08/07 10:13:17;;;;;;;2.13;1.27;;;;;;;23.62;69.86;100103.03;5093257;28;20886;-72
2021/08/07 10:15:45;;;;;;;1.43;0.90;;;;;;;23.70;69.69;100101.06;5093384;28;20467;-72
2021/08/07 10:18:12;;;;;;;0.77;0.77;;;;;;;23.75;67.43;100098.66;5092976;28;20827;-72
2021/08/07 10:20:41;;;;;;;1.17;0.80;;;;;;;23.83;67.32;100097.41;5093242;28;20451;-73
2021/08/07 10:23:08;;;;;;;1.27;1.17;;;;;;;23.88;64.70;100102.53;5093190;28;20448;-73
2021/08/07 10:25:35;;;;;;;1.07;0.97;;;;;;;23.89;66.71;100093.03;5093355;28;20476;-74
2021/08/07 10:28:04;;;;;;;1.10;0.90;;;;;;;23.82;65.65;100097.84;5093085;28;20449;-76
2021/08/07 10:30:33;;;;;;;1.40;1.10;;;;;;;23.83;65.54;100091.88;5093163;28;20451;-77
2021/08/07 10:33:02;;;;;;;1.23;1.00;;;;;;;23.79;66.00;100090.34;5093025;28;20487;-77
2021/08/07 10:35:30;;;;;;;1.00;0.90;;;;;;;23.83;66.82;100096.63;5093320;28;20543;-76
2021/08/07 10:37:59;;;;;;;1.50;1.10;;;;;;;23.95;66.74;100085.13;5093027;28;20448;-76
2021/08/07 10:40:26;;;;;;;1.23;1.10;;;;;;;24.22;64.83;100090.88;5092791;28;20844;-76
2021/08/07 10:42:54;;;;;;;0.80;0.80;;;;;;;24.23;60.68;100092.44;5091954;28;20447;-75
2021/08/07 10:45:23;;;;;;;1.13;0.80;;;;;;;24.21;62.94;100082.94;5092043;28;20460;-76
2021/08/07 10:47:51;;;;;;;5.83;0.90;;;;;;;24.21;63.71;100080.97;5075045;28;20961;-77
2021/08/07 10:50:34;;;;;;;0.87;0.80;;;;;;;24.39;65.25;100076.16;5072270;28;20844;-77
2021/08/07 10:53:04;;;;;;;0.97;0.87;;;;;;;24.57;63.21;100072.41;5072256;28;20840;-77
2021/08/07 10:55:46;;;;;;;1.63;1.10;;;;;;;24.92;63.09;100071.28;5072380;28;20469;-77
2021/08/07 10:58:43;;;;;;;0.70;0.70;;;;;;;25.17;67.32;100071.06;5072508;28;20443;-76
2021/08/07 11:01:33;;;;;;;1.17;0.67;;;;;;;25.37;62.64;100074.03;5014194;28;20467;-77
2021/08/07 11:04:16;;;;;;;1.17;0.73;;;;;;;25.46;64.32;100057.66;5071270;28;20591;-77
2021/08/07 11:06:48;;;;;;;1.20;1.10;;;;;;;25.41;58.33;100069.19;5074589;28;20456;-76
2021/08/07 11:09:21;;;;;;;1.23;1.13;;;;;;;25.13;59.40;100062.00;5076116;28;20445;-77
2021/08/07 11:11:48;;;;;;;0.90;0.90;;;;;;;25.23;60.16;100058.31;5076083;28;20448;-77
2021/08/07 11:14:43;;;;;;;1.03;0.80;;;;;;;25.33;61.67;100054.66;5075853;28;20496;-77
2021/08/07 11:17:29;;;;;;;1.17;1.03;;;;;;;25.45;58.09;100052.50;5076000;28;20445;-76
2021/08/07 11:20:00;;;;;;;1.07;0.77;;;;;;;25.46;59.55;100054.88;5076020;28;20437;-77
2021/08/07 11:23:08;;;;;;;1.47;1.00;;;;;;;25.74;56.90;100064.81;5075653;28;20428;-77
2021/08/07 11:25:59;;;;;;;1.10;0.90;;;;;;;25.64;58.09;100074.06;5076054;28;20453;-76